Time;durP1;ratioP1;P1;durP2;ratioP2;P2;SDS_P1;SDS_P2;PMS_P1;PMS_P2;Temp;Humidity;BMP_temperature;BMP_pressure;BME280_temperature;BME280_humidity;BME280_pressure;Samples;Min_cycle;Max_cycle;Signal;HPM_P1;HPM_P2
2021/01/31 00:00:42;;;;;;;14.20;4.80;;;;;;;;;;5007432;28;20045;-60
2021/01/31 00:03:09;;;;;;;12.05;4.80;;;;;;;;;;5026747;28;20070;-62
2021/01/31 00:05:35;;;;;;;15.65;5.78;;;;;;;;;;5021032;28;20044;-60
2021/01/31 00:08:02;;;;;;;13.32;5.35;;;;;;;;;;5005970;28;20033;-62
2021/01/31 00:10:29;;;;;;;15.00;5.47;;;;;;;;;;5005133;28;20034;-59
2021/01/31 00:12:55;;;;;;;17.92;5.32;;;;;;;;;;5002426;28;20041;-61
2021/01/31 00:15:22;;;;;;;16.38;5.85;;;;;;;;;;5006253;28;20042;-60
2021/01/31 00:17:49;;;;;;;14.93;5.90;;;;;;;;;;5012798;28;20123;-61
2021/01/31 00:20:16;;;;;;;15.77;5.97;;;;;;;;;;5003577;28;20036;-63
2021/01/31 00:22:42;;;;;;;12.50;4.05;;;;;;;;;;5012742;28;20096;-59
2021/01/31 00:25:09;;;;;;;12.63;4.57;;;;;;;;;;5025024;28;20048;-60
2021/01/31 00:27:37;;;;;;;15.90;5.30;;;;;;;;;;5018442;28;20041;-59
2021/01/31 00:30:07;;;;;;;15.88;5.72;;;;;;;;;;5022712;28;20060;-61
2021/01/31 00:32:34;;;;;;;13.73;5.45;;;;;;;;;;5018185;28;20041;-61
2021/01/31 00:35:00;;;;;;;12.38;4.63;;;;;;;;;;5022336;28;20090;-61
2021/01/31 00:37:26;;;;;;;14.38;4.72;;;;;;;;;;5014102;28;20046;-61
2021/01/31 00:39:52;;;;;;;12.57;5.13;;;;;;;;;;5004506;28;20088;-61
2021/01/31 00:42:20;;;;;;;11.88;4.20;;;;;;;;;;5000366;28;20058;-62
2021/01/31 00:44:47;;;;;;;14.82;5.45;;;;;;;;;;5005931;28;20053;-61
2021/01/31 00:47:14;;;;;;;16.58;6.70;;;;;;;;;;5018864;28;20052;-61
2021/01/31 00:49:42;;;;;;;16.17;4.88;;;;;;;;;;5004119;28;20034;-60
2021/01/31 00:52:08;;;;;;;11.18;4.35;;;;;;;;;;5004694;28;20038;-61
2021/01/31 00:54:34;;;;;;;15.52;5.72;;;;;;;;;;5000622;28;20147;-59
2021/01/31 00:57:01;;;;;;;12.98;5.07;;;;;;;;;;5005369;28;20045;-62
2021/01/31 00:59:27;;;;;;;12.77;4.25;;;;;;;;;;5000452;28;20095;-59
2021/01/31 01:01:53;;;;;;;12.40;4.82;;;;;;;;;;5004837;28;20038;-59
2021/01/31 01:04:19;;;;;;;17.15;5.55;;;;;;;;;;5000564;28;20041;-58
2021/01/31 01:06:47;;;;;;;13.30;4.95;;;;;;;;;;5003270;28;20025;-60
2021/01/31 01:09:13;;;;;;;13.35;5.18;;;;;;;;;;5003743;28;20049;-62
2021/01/31 01:11:40;;;;;;;14.80;6.10;;;;;;;;;;5007400;28;20029;-59
2021/01/31 01:14:06;;;;;;;13.35;5.75;;;;;;;;;;5029852;28;20061;-60
2021/01/31 01:16:33;;;;;;;18.80;5.13;;;;;;;;;;5025275;28;20053;-59
2021/01/31 01:18:59;;;;;;;15.63;5.80;;;;;;;;;;5016975;28;20058;-60
2021/01/31 01:21:25;;;;;;;12.90;4.75;;;;;;;;;;5007344;28;20045;-60
2021/01/31 01:23:52;;;;;;;14.50;6.07;;;;;;;;;;5005232;28;20108;-60
2021/01/31 01:26:18;;;;;;;13.65;4.93;;;;;;;;;;5010105;28;20022;-62
2021/01/31 01:28:44;;;;;;;14.02;5.18;;;;;;;;;;5006727;28;20038;-59
2021/01/31 01:31:10;;;;;;;15.13;5.78;;;;;;;;;;5043034;28;20045;-61
2021/01/31 01:33:36;;;;;;;16.20;5.88;;;;;;;;;;5026123;28;20114;-61
2021/01/31 01:36:04;;;;;;;13.10;4.70;;;;;;;;;;5019832;28;20042;-60
2021/01/31 01:38:30;;;;;;;14.90;5.18;;;;;;;;;;4997576;28;20111;-61
2021/01/31 01:40:57;;;;;;;17.52;7.63;;;;;;;;;;5004115;28;20085;-59
2021/01/31 01:43:23;;;;;;;13.88;5.32;;;;;;;;;;5037355;28;20041;-59
2021/01/31 01:46:03;;;;;;;16.67;5.63;;;;;;;;;;5010965;28;20087;-60
2021/01/31 01:48:32;;;;;;;14.85;5.45;;;;;;;;;;5005911;28;20037;-59
2021/01/31 01:50:58;;;;;;;17.77;6.68;;;;;;;;;;5014062;28;20074;-61
2021/01/31 01:53:26;;;;;;;12.52;4.60;;;;;;;;;;5026257;28;20116;-60
2021/01/31 01:55:55;;;;;;;12.73;5.40;;;;;;;;;;5011713;28;20038;-59
2021/01/31 01:58:23;;;;;;;15.77;5.32;;;;;;;;;;5006504;28;20041;-61
2021/01/31 02:00:49;;;;;;;13.57;5.20;;;;;;;;;;5009298;28;20045;-61
2021/01/31 02:03:18;;;;;;;15.30;6.32;;;;;;;;;;5025621;28;20065;-58
2021/01/31 02:05:47;;;;;;;17.88;6.18;;;;;;;;;;5017166;28;20034;-61
2021/01/31 02:08:13;;;;;;;13.85;5.10;;;;;;;;;;5006376;28;20048;-59
2021/01/31 02:10:39;;;;;;;20.38;6.25;;;;;;;;;;5004595;28;20137;-61
2021/01/31 02:13:05;;;;;;;16.13;6.05;;;;;;;;;;5021470;28;20062;-59
2021/01/31 02:15:33;;;;;;;14.57;4.82;;;;;;;;;;5040908;28;20119;-59
2021/01/31 02:18:05;;;;;;;14.48;4.85;;;;;;;;;;5030238;28;20042;-58
2021/01/31 02:20:49;;;;;;;12.75;4.90;;;;;;;;;;5023399;28;20049;-59
2021/01/31 02:23:36;;;;;;;11.35;5.00;;;;;;;;;;5021703;28;20033;-58
2021/01/31 02:26:05;;;;;;;12.35;5.00;;;;;;;;;;4990615;28;20060;-58
2021/01/31 02:29:06;;;;;;;15.38;4.32;;;;;;;;;;5015575;28;20041;-60
2021/01/31 02:31:47;;;;;;;12.10;4.63;;;;;;;;;;4955156;28;20050;-60
2021/01/31 02:34:20;;;;;;;11.10;4.85;;;;;;;;;;4965338;28;20055;-58
2021/01/31 02:36:54;;;;;;;14.98;5.10;;;;;;;;;;4992527;28;20099;-61
2021/01/31 02:39:24;;;;;;;15.07;4.75;;;;;;;;;;5006143;28;20049;-59
2021/01/31 02:41:57;;;;;;;16.25;5.05;;;;;;;;;;5004150;28;20069;-60
2021/01/31 02:44:24;;;;;;;14.35;5.47;;;;;;;;;;5024600;28;20053;-59
2021/01/31 02:46:53;;;;;;;13.35;5.55;;;;;;;;;;5002859;28;20050;-59
2021/01/31 02:49:22;;;;;;;10.82;3.83;;;;;;;;;;5027116;28;20057;-61
2021/01/31 02:51:51;;;;;;;12.20;4.82;;;;;;;;;;5027650;28;20069;-59
2021/01/31 02:54:19;;;;;;;14.90;5.38;;;;;;;;;;5001077;28;20037;-58
2021/01/31 02:56:49;;;;;;;14.75;5.65;;;;;;;;;;5005947;28;20052;-61
2021/01/31 02:59:18;;;;;;;12.30;4.68;;;;;;;;;;5002232;28;20049;-59
2021/01/31 03:01:50;;;;;;;18.40;5.43;;;;;;;;;;5032552;23;20046;-58
2021/01/31 03:04:20;;;;;;;12.57;5.18;;;;;;;;;;5030032;28;20170;-58
2021/01/31 03:06:50;;;;;;;13.50;5.65;;;;;;;;;;5032663;28;20057;-57
2021/01/31 03:09:18;;;;;;;12.82;4.68;;;;;;;;;;5014213;28;20036;-59
2021/01/31 03:11:47;;;;;;;13.48;4.68;;;;;;;;;;5025596;28;20033;-57
2021/01/31 03:14:15;;;;;;;14.52;5.18;;;;;;;;;;5010135;28;20106;-57
2021/01/31 03:16:47;;;;;;;;;;;;;;;;;;5025253;28;20041;-58
2021/01/31 03:19:15;;;;;;;11.57;4.05;;;;;;;;;;5020909;28;19956;-58
2021/01/31 03:21:44;;;;;;;11.85;4.10;;;;;;;;;;5020143;28;20041;-59
2021/01/31 03:24:14;;;;;;;17.58;6.65;;;;;;;;;;5004603;28;20046;-59
2021/01/31 03:26:42;;;;;;;12.98;5.32;;;;;;;;;;5000093;28;20048;-58
2021/01/31 03:29:08;;;;;;;13.00;4.93;;;;;;;;;;5005052;28;20030;-58
2021/01/31 03:31:37;;;;;;;16.13;6.05;;;;;;;;;;5013098;28;20111;-60
2021/01/31 03:34:06;;;;;;;13.35;5.00;;;;;;;;;;5025571;28;20049;-58
2021/01/31 03:36:33;;;;;;;13.15;4.65;;;;;;;;;;5019847;28;20052;-59
2021/01/31 03:39:00;;;;;;;15.60;5.72;;;;;;;;;;5025132;28;20056;-58
2021/01/31 03:41:28;;;;;;;13.60;5.38;;;;;;;;;;5021479;28;20045;-58
2021/01/31 03:43:54;;;;;;;21.63;7.37;;;;;;;;;;5039586;28;20101;-60
2021/01/31 03:46:25;;;;;;;14.15;5.90;;;;;;;;;;5025259;28;20037;-60
2021/01/31 03:48:54;;;;;;;13.43;5.22;;;;;;;;;;5020636;28;20111;-58
2021/01/31 03:51:20;;;;;;;17.55;5.15;;;;;;;;;;5025262;28;20033;-61
2021/01/31 03:53:47;;;;;;;16.02;5.82;;;;;;;;;;5021207;28;20055;-60
2021/01/31 03:56:16;;;;;;;16.50;5.70;;;;;;;;;;5025822;28;20056;-57
2021/01/31 03:58:44;;;;;;;14.02;4.75;;;;;;;;;;5020066;28;20060;-57
2021/01/31 04:01:11;;;;;;;16.85;5.13;;;;;;;;;;5024637;28;20048;-60
2021/01/31 04:03:39;;;;;;;18.17;5.55;;;;;;;;;;5024007;28;20063;-58
2021/01/31 04:06:07;;;;;;;14.73;5.40;;;;;;;;;;5017020;28;20049;-59
2021/01/31 04:08:35;;;;;;;14.55;5.35;;;;;;;;;;5025485;28;20034;-60
2021/01/31 04:11:01;;;;;;;14.67;5.23;;;;;;;;;;5036400;28;20049;-60
2021/01/31 04:13:29;;;;;;;11.13;3.92;;;;;;;;;;5025026;28;20041;-60
2021/01/31 04:15:59;;;;;;;14.30;4.95;;;;;;;;;;5020180;28;20045;-60
2021/01/31 04:18:25;;;;;;;15.15;5.72;;;;;;;;;;5041707;28;20041;-61
2021/01/31 04:20:52;;;;;;;17.25;5.50;;;;;;;;;;5022271;28;20168;-60
2021/01/31 04:23:18;;;;;;;15.90;5.32;;;;;;;;;;5029248;28;20152;-60
2021/01/31 04:25:45;;;;;;;12.00;5.07;;;;;;;;;;5023787;28;20037;-60
2021/01/31 04:28:13;;;;;;;15.38;6.05;;;;;;;;;;5025046;28;20101;-60
2021/01/31 04:30:40;;;;;;;14.38;4.72;;;;;;;;;;5023705;28;20052;-59
2021/01/31 04:33:08;;;;;;;18.48;6.60;;;;;;;;;;5035167;28;20034;-58
2021/01/31 04:35:34;;;;;;;13.55;5.53;;;;;;;;;;5040485;28;20049;-58
2021/01/31 04:38:01;;;;;;;14.07;5.43;;;;;;;;;;5025809;28;20053;-58
2021/01/31 04:40:28;;;;;;;14.35;5.50;;;;;;;;;;5023639;28;20048;-57
2021/01/31 04:42:54;;;;;;;20.75;6.88;;;;;;;;;;5025843;28;20063;-59
2021/01/31 04:45:20;;;;;;;16.30;5.55;;;;;;;;;;5044461;28;20061;-58
2021/01/31 04:47:53;;;;;;;16.30;6.15;;;;;;;;;;5039438;28;20040;-58
2021/01/31 04:50:23;;;;;;;14.10;5.40;;;;;;;;;;5042976;28;20048;-59
2021/01/31 04:53:07;;;;;;;14.18;5.97;;;;;;;;;;5045559;28;20141;-58
2021/01/31 04:55:40;;;;;;;16.20;5.38;;;;;;;;;;5036929;28;20029;-59
2021/01/31 04:58:11;;;;;;;14.20;4.78;;;;;;;;;;5042724;28;20037;-58
2021/01/31 05:00:41;;;;;;;14.70;5.93;;;;;;;;;;5044777;28;20040;-59
2021/01/31 05:03:07;;;;;;;14.02;4.60;;;;;;;;;;5050633;28;20056;-59
2021/01/31 05:05:37;;;;;;;14.00;5.00;;;;;;;;;;5025627;28;20049;-60
2021/01/31 05:08:05;;;;;;;17.35;5.13;;;;;;;;;;5027969;28;20064;-58
2021/01/31 05:10:32;;;;;;;12.48;4.43;;;;;;;;;;5047066;28;20036;-58
2021/01/31 05:13:09;;;;;;;13.45;4.82;;;;;;;;;;5041577;28;20146;-59
2021/01/31 05:15:38;;;;;;;15.18;5.22;;;;;;;;;;5027435;28;20048;-58
2021/01/31 05:18:05;;;;;;;17.45;5.32;;;;;;;;;;5023242;28;20045;-58
2021/01/31 05:20:34;;;;;;;20.95;6.07;;;;;;;;;;5061368;28;20041;-59
2021/01/31 05:23:01;;;;;;;15.35;6.03;;;;;;;;;;5030272;28;20057;-60
2021/01/31 05:25:28;;;;;;;14.52;4.75;;;;;;;;;;5043294;28;20037;-60
2021/01/31 05:27:57;;;;;;;12.68;4.90;;;;;;;;;;5064445;28;20122;-61
2021/01/31 05:30:23;;;;;;;18.40;5.78;;;;;;;;;;5039803;28;20037;-62
2021/01/31 05:33:03;;;;;;;19.70;6.60;;;;;;;;;;5046333;28;20052;-62
2021/01/31 05:35:30;;;;;;;17.10;5.13;;;;;;;;;;5043073;28;20045;-61
2021/01/31 05:37:57;;;;;;;13.57;5.43;;;;;;;;;;5047326;28;20314;-62
2021/01/31 05:40:29;;;;;;;14.52;4.65;;;;;;;;;;5042920;28;20051;-60
2021/01/31 05:42:55;;;;;;;14.57;5.32;;;;;;;;;;5045605;28;20047;-61
2021/01/31 05:45:30;;;;;;;12.38;5.20;;;;;;;;;;5030803;28;20029;-60
2021/01/31 05:47:56;;;;;;;11.10;4.63;;;;;;;;;;5027821;28;20037;-61
2021/01/31 05:50:29;;;;;;;17.73;5.10;;;;;;;;;;5026588;28;20037;-60
2021/01/31 05:52:55;;;;;;;13.73;5.28;;;;;;;;;;5028295;28;20068;-60
2021/01/31 05:55:25;;;;;;;15.32;5.93;;;;;;;;;;5032090;28;20056;-59
2021/01/31 05:57:52;;;;;;;15.27;5.80;;;;;;;;;;5044753;28;20047;-60
2021/01/31 06:00:25;;;;;;;17.60;5.97;;;;;;;;;;5040747;28;20118;-60
2021/01/31 06:02:58;;;;;;;16.95;5.70;;;;;;;;;;5045831;28;20050;-59
2021/01/31 06:05:24;;;;;;;12.95;4.60;;;;;;;;;;5034692;28;20034;-59
2021/01/31 06:07:58;;;;;;;20.10;7.00;;;;;;;;;;5027503;28;20041;-59
2021/01/31 06:10:24;;;;;;;18.50;5.25;;;;;;;;;;5027136;28;20055;-63
2021/01/31 06:12:50;;;;;;;12.07;4.85;;;;;;;;;;5047298;28;20168;-59
2021/01/31 06:15:22;;;;;;;11.25;4.47;;;;;;;;;;5058171;28;20056;-60
2021/01/31 06:17:54;;;;;;;12.50;5.07;;;;;;;;;;5056536;28;20060;-58
2021/01/31 06:20:26;;;;;;;15.85;5.95;;;;;;;;;;5039316;28;20053;-61
2021/01/31 06:22:52;;;;;;;16.40;6.03;;;;;;;;;;5020221;28;20041;-59
2021/01/31 06:25:34;;;;;;;19.15;5.43;;;;;;;;;;5024759;28;20056;-61
2021/01/31 06:28:12;;;;;;;14.30;5.18;;;;;;;;;;5024746;28;20041;-60
2021/01/31 06:30:43;;;;;;;13.13;3.75;;;;;;;;;;5023898;28;20045;-60
2021/01/31 06:33:09;;;;;;;16.80;5.43;;;;;;;;;;5039953;28;20064;-62
2021/01/31 06:35:35;;;;;;;17.05;5.85;;;;;;;;;;5026234;28;20038;-62
2021/01/31 06:38:13;;;;;;;14.98;5.55;;;;;;;;;;5039233;28;20041;-62
2021/01/31 06:40:44;;;;;;;17.42;6.35;;;;;;;;;;5045380;28;20049;-63
2021/01/31 06:43:16;;;;;;;11.80;5.00;;;;;;;;;;5037758;28;20074;-62
2021/01/31 06:45:45;;;;;;;15.07;5.15;;;;;;;;;;5042478;28;20045;-63
2021/01/31 06:48:25;;;;;;;17.40;5.35;;;;;;;;;;5040274;28;20068;-64
2021/01/31 06:51:03;;;;;;;16.17;5.47;;;;;;;;;;5045081;28;20041;-62
2021/01/31 06:53:50;;;;;;;9.90;4.22;;;;;;;;;;5038847;28;20114;-64
2021/01/31 06:56:40;;;;;;;16.40;6.05;;;;;;;;;;5040464;28;20048;-63
2021/01/31 06:59:21;;;;;;;15.45;5.85;;;;;;;;;;5023902;28;20130;-60
2021/01/31 07:01:54;;;;;;;18.02;5.93;;;;;;;;;;5023839;28;20045;-61
2021/01/31 07:04:32;;;;;;;14.40;5.15;;;;;;;;;;5025745;28;20082;-61
2021/01/31 07:07:19;;;;;;;17.13;5.72;;;;;;;;;;5024371;28;20057;-58
2021/01/31 07:09:55;;;;;;;20.52;4.85;;;;;;;;;;5043277;28;20041;-61
2021/01/31 07:12:23;;;;;;;18.55;6.50;;;;;;;;;;5040119;28;20050;-60
2021/01/31 07:14:54;;;;;;;14.75;4.43;;;;;;;;;;5063443;28;20061;-59
2021/01/31 07:17:25;;;;;;;16.70;5.57;;;;;;;;;;5045962;28;20049;-62
2021/01/31 07:19:53;;;;;;;15.73;5.68;;;;;;;;;;5023803;28;20041;-58
2021/01/31 07:22:19;;;;;;;;;;;;;;;;;;5031685;28;20072;-63
2021/01/31 07:24:48;;;;;;;12.20;4.38;;;;;;;;;;5040616;28;19920;-63
2021/01/31 07:27:18;;;;;;;14.13;5.07;;;;;;;;;;5045209;28;20055;-61
2021/01/31 07:29:48;;;;;;;15.20;5.72;;;;;;;;;;5043885;28;20055;-60
2021/01/31 07:32:17;;;;;;;15.15;5.65;;;;;;;;;;5043850;28;20041;-59
2021/01/31 07:34:48;;;;;;;19.17;6.30;;;;;;;;;;5040995;28;20041;-59
2021/01/31 07:37:15;;;;;;;14.65;5.25;;;;;;;;;;5043726;28;20045;-59
2021/01/31 07:39:47;;;;;;;17.25;5.85;;;;;;;;;;5032675;28;20036;-59
2021/01/31 07:42:14;;;;;;;18.13;6.70;;;;;;;;;;5040226;28;20071;-58
2021/01/31 07:44:41;;;;;;;13.13;4.43;;;;;;;;;;5035764;28;20118;-59
2021/01/31 07:47:07;;;;;;;16.10;5.22;;;;;;;;;;5038523;28;20041;-63
2021/01/31 07:50:06;;;;;;;17.23;6.32;;;;;;;;;;5034591;28;20056;-60
2021/01/31 07:52:46;;;;;;;18.42;5.95;;;;;;;;;;4986981;28;20058;-61
2021/01/31 07:55:16;;;;;;;15.98;5.60;;;;;;;;;;4991639;28;20046;-62
2021/01/31 07:57:56;;;;;;;16.17;5.47;;;;;;;;;;5017964;28;20044;-63
2021/01/31 08:00:31;;;;;;;21.38;6.82;;;;;;;;;;5033830;28;20052;-62
2021/01/31 08:02:58;;;;;;;14.93;5.65;;;;;;;;;;5037069;28;20044;-59
2021/01/31 08:05:43;;;;;;;15.48;5.60;;;;;;;;;;5032753;28;20048;-62
2021/01/31 08:08:10;;;;;;;23.35;6.82;;;;;;;;;;5037516;28;20048;-63
2021/01/31 08:10:47;;;;;;;14.25;5.43;;;;;;;;;;5031359;28;20068;-62
2021/01/31 08:13:47;;;;;;;17.80;6.70;;;;;;;;;;5037949;28;20147;-62
2021/01/31 08:16:32;;;;;;;13.90;5.05;;;;;;;;;;5005380;28;20046;-60
2021/01/31 08:19:02;;;;;;;15.52;5.93;;;;;;;;;;5001986;28;20143;-60
2021/01/31 08:21:43;;;;;;;16.45;5.25;;;;;;;;;;5019082;28;20072;-63
2021/01/31 08:24:10;;;;;;;14.15;5.47;;;;;;;;;;5049486;28;20147;-61
2021/01/31 08:26:48;;;;;;;12.90;5.07;;;;;;;;;;5044457;28;20037;-62
2021/01/31 08:29:21;;;;;;;21.50;6.55;;;;;;;;;;5040382;28;20088;-62
2021/01/31 08:32:08;;;;;;;15.20;5.22;;;;;;;;;;5035919;28;20060;-61
2021/01/31 08:34:48;;;;;;;14.00;4.68;;;;;;;;;;5033144;28;20033;-63
2021/01/31 08:37:28;;;;;;;13.15;4.18;;;;;;;;;;5028072;28;20064;-61
2021/01/31 08:39:55;;;;;;;22.33;5.93;;;;;;;;;;5052865;28;20033;-63
2021/01/31 08:42:21;;;;;;;17.42;5.97;;;;;;;;;;5037317;28;20037;-64
2021/01/31 08:44:57;;;;;;;18.13;6.15;;;;;;;;;;5051499;28;20044;-63
2021/01/31 08:47:27;;;;;;;18.70;7.20;;;;;;;;;;5033808;28;20041;-60
2021/01/31 08:49:57;;;;;;;15.98;6.35;;;;;;;;;;5031968;28;20041;-59
2021/01/31 08:52:23;;;;;;;23.13;7.53;;;;;;;;;;5025860;28;20048;-58
2021/01/31 08:55:00;;;;;;;18.80;6.60;;;;;;;;;;5031537;28;20045;-63
2021/01/31 08:57:27;;;;;;;16.77;6.18;;;;;;;;;;5024851;28;20067;-59
2021/01/31 08:59:54;;;;;;;18.02;5.60;;;;;;;;;;5028581;28;20048;-60
2021/01/31 09:02:22;;;;;;;17.45;6.35;;;;;;;;;;5029949;28;20045;-59
2021/01/31 09:04:50;;;;;;;14.65;5.07;;;;;;;;;;5045573;28;20042;-61
2021/01/31 09:07:22;;;;;;;19.07;6.10;;;;;;;;;;5044725;28;20029;-64
2021/01/31 09:09:56;;;;;;;14.63;5.72;;;;;;;;;;5048881;28;20281;-64
2021/01/31 09:12:24;;;;;;;20.13;6.60;;;;;;;;;;5047244;28;20048;-64
2021/01/31 09:14:52;;;;;;;12.15;4.20;;;;;;;;;;5048237;28;20143;-62
2021/01/31 09:17:20;;;;;;;;;;;;;;;;;;5044421;28;20040;-62
2021/01/31 09:19:46;;;;;;;11.05;3.85;;;;;;;;;;5045568;28;19925;-64
2021/01/31 09:22:16;;;;;;;16.20;5.03;;;;;;;;;;5047808;28;20507;-63
2021/01/31 09:24:44;;;;;;;16.25;5.00;;;;;;;;;;5046704;28;20045;-65
2021/01/31 09:27:16;;;;;;;12.63;4.77;;;;;;;;;;5046215;28;20041;-64
2021/01/31 09:29:43;;;;;;;14.88;5.22;;;;;;;;;;5060322;28;20029;-64
2021/01/31 09:32:18;;;;;;;15.15;5.65;;;;;;;;;;5047145;28;20055;-62
2021/01/31 09:34:47;;;;;;;15.60;5.85;;;;;;;;;;5058458;28;20047;-63
2021/01/31 09:37:20;;;;;;;11.75;4.43;;;;;;;;;;5046309;28;20084;-64
2021/01/31 09:39:47;;;;;;;16.55;5.90;;;;;;;;;;5059987;28;20025;-64
2021/01/31 09:42:13;;;;;;;17.73;6.80;;;;;;;;;;5047075;28;20033;-63
2021/01/31 09:44:40;;;;;;;18.55;5.15;;;;;;;;;;5040707;28;20076;-60
2021/01/31 09:47:08;;;;;;;15.55;6.13;;;;;;;;;;5046113;28;20064;-65
2021/01/31 09:49:35;;;;;;;18.52;6.03;;;;;;;;;;5059850;28;20055;-61
2021/01/31 09:52:06;;;;;;;13.13;5.13;;;;;;;;;;5065188;28;20041;-63
2021/01/31 09:54:33;;;;;;;11.52;4.88;;;;;;;;;;5032000;28;20030;-61
2021/01/31 09:57:01;;;;;;;16.20;5.93;;;;;;;;;;5043435;28;20053;-62
2021/01/31 09:59:28;;;;;;;14.40;5.25;;;;;;;;;;5040337;28;20045;-64
2021/01/31 10:02:01;;;;;;;13.50;4.73;;;;;;;;;;5044729;28;20049;-63
2021/01/31 10:04:28;;;;;;;14.93;6.10;;;;;;;;;;5041252;28;20351;-63
2021/01/31 10:06:58;;;;;;;15.93;5.65;;;;;;;;;;5046245;28;20060;-65
2021/01/31 10:09:29;;;;;;;14.85;6.07;;;;;;;;;;5042954;28;20613;-62
2021/01/31 10:12:10;;;;;;;15.77;4.82;;;;;;;;;;5041961;28;20089;-65
2021/01/31 10:14:44;;;;;;;12.20;4.65;;;;;;;;;;5041320;28;20041;-62
2021/01/31 10:17:13;;;;;;;22.35;7.00;;;;;;;;;;5024055;28;20052;-61
2021/01/31 10:19:40;;;;;;;19.33;6.53;;;;;;;;;;5022704;28;20045;-65
2021/01/31 10:22:10;;;;;;;12.02;4.68;;;;;;;;;;5038805;28;20055;-63
2021/01/31 10:24:36;;;;;;;12.13;4.68;;;;;;;;;;5025742;28;20057;-63
2021/01/31 10:27:21;;;;;;;16.63;6.18;;;;;;;;;;5022029;28;20041;-64
2021/01/31 10:29:48;;;;;;;10.00;3.97;;;;;;;;;;5024922;28;20051;-63
2021/01/31 10:32:18;;;;;;;12.20;3.28;;;;;;;;;;5023618;28;20152;-64
2021/01/31 10:34:45;;;;;;;7.30;3.38;;;;;;;;;;5034522;28;20303;-62
2021/01/31 10:37:16;;;;;;;10.48;4.05;;;;;;;;;;5040307;28;20077;-64
2021/01/31 10:39:43;;;;;;;13.18;5.07;;;;;;;;;;5043271;28;20053;-61
2021/01/31 10:42:09;;;;;;;13.90;4.90;;;;;;;;;;5061057;28;20033;-64
2021/01/31 10:44:36;;;;;;;10.32;3.95;;;;;;;;;;5044850;28;20037;-63
2021/01/31 10:47:02;;;;;;;13.38;4.05;;;;;;;;;;5041802;28;20063;-64
2021/01/31 10:49:28;;;;;;;8.60;3.83;;;;;;;;;;5045291;28;20494;-61
2021/01/31 10:51:55;;;;;;;14.13;4.32;;;;;;;;;;5040147;28;20077;-59
2021/01/31 10:54:22;;;;;;;4.22;2.15;;;;;;;;;;5046335;28;20051;-63
2021/01/31 10:56:50;;;;;;;12.15;3.75;;;;;;;;;;5034292;28;20045;-63
2021/01/31 10:59:16;;;;;;;17.83;5.43;;;;;;;;;;5025713;28;20077;-64
2021/01/31 11:01:42;;;;;;;8.20;3.80;;;;;;;;;;5024169;28;20037;-65
2021/01/31 11:04:08;;;;;;;13.45;3.95;;;;;;;;;;5042147;28;20033;-64
2021/01/31 11:06:35;;;;;;;11.50;4.45;;;;;;;;;;5041153;28;20071;-60
2021/01/31 11:09:03;;;;;;;14.82;5.57;;;;;;;;;;5039980;28;20033;-62
2021/01/31 11:11:29;;;;;;;13.27;4.97;;;;;;;;;;5037444;28;20037;-63
2021/01/31 11:13:55;;;;;;;12.85;4.57;;;;;;;;;;5043512;28;20040;-61
2021/01/31 11:16:23;;;;;;;13.93;5.20;;;;;;;;;;5044244;28;20056;-64
2021/01/31 11:18:49;;;;;;;14.15;5.25;;;;;;;;;;5024781;28;20090;-64
2021/01/31 11:21:20;;;;;;;11.75;4.00;;;;;;;;;;5025973;28;20041;-61
2021/01/31 11:23:46;;;;;;;7.63;2.83;;;;;;;;;;5040492;28;20037;-62
2021/01/31 11:26:14;;;;;;;14.77;4.82;;;;;;;;;;5045212;28;20114;-64
2021/01/31 11:28:40;;;;;;;8.50;3.33;;;;;;;;;;5041549;28;20040;-63
2021/01/31 11:31:06;;;;;;;4.10;1.50;;;;;;;;;;5044742;28;20063;-62
2021/01/31 11:33:32;;;;;;;11.90;4.20;;;;;;;;;;5040934;28;20037;-63
2021/01/31 11:35:58;;;;;;;8.15;3.58;;;;;;;;;;5045112;28;20275;-62
2021/01/31 11:38:25;;;;;;;13.52;4.35;;;;;;;;;;5041215;28;20037;-62
2021/01/31 11:40:51;;;;;;;12.93;4.53;;;;;;;;;;5044631;28;20043;-63
2021/01/31 11:43:18;;;;;;;10.48;3.72;;;;;;;;;;5034022;28;20117;-63
2021/01/31 11:45:44;;;;;;;13.75;3.95;;;;;;;;;;5044572;28;20052;-63
2021/01/31 11:48:17;;;;;;;11.57;3.90;;;;;;;;;;5040733;28;20041;-63
2021/01/31 11:50:43;;;;;;;11.27;4.30;;;;;;;;;;5044851;28;20064;-64
2021/01/31 11:53:09;;;;;;;8.70;3.30;;;;;;;;;;5040232;28;20052;-64
2021/01/31 11:55:35;;;;;;;10.88;4.47;;;;;;;;;;5039680;28;20057;-63
2021/01/31 11:58:03;;;;;;;14.20;4.47;;;;;;;;;;5039917;28;20056;-64
2021/01/31 12:00:30;;;;;;;13.40;3.83;;;;;;;;;;5023971;28;20044;-63
2021/01/31 12:02:56;;;;;;;9.70;3.28;;;;;;;;;;5024141;28;20037;-63
2021/01/31 12:05:23;;;;;;;11.90;3.78;;;;;;;;;;5036663;28;20069;-60
2021/01/31 12:07:51;;;;;;;15.27;4.88;;;;;;;;;;5044726;28;20043;-63
2021/01/31 12:10:17;;;;;;;9.10;2.97;;;;;;;;;;5038889;28;20054;-60
2021/01/31 12:12:44;;;;;;;13.07;4.18;;;;;;;;;;5062891;28;20048;-62
2021/01/31 12:15:11;;;;;;;13.40;4.55;;;;;;;;;;5031103;28;20052;-61
2021/01/31 12:17:39;;;;;;;11.50;4.22;;;;;;;;;;5025718;28;20081;-63
2021/01/31 12:20:05;;;;;;;12.38;4.22;;;;;;;;;;5022179;28;20033;-60
2021/01/31 12:22:31;;;;;;;13.18;5.05;;;;;;;;;;5034538;28;20053;-60
2021/01/31 12:24:57;;;;;;;13.32;4.68;;;;;;;;;;5035162;28;20040;-61
2021/01/31 12:27:25;;;;;;;5.65;2.53;;;;;;;;;;5024793;28;20077;-61
2021/01/31 12:29:51;;;;;;;10.67;4.27;;;;;;;;;;5023647;28;20207;-60
2021/01/31 12:32:18;;;;;;;11.77;5.35;;;;;;;;;;5045362;28;20037;-63
2021/01/31 12:34:45;;;;;;;14.95;5.15;;;;;;;;;;5041552;28;20096;-63
2021/01/31 12:37:14;;;;;;;14.23;4.60;;;;;;;;;;5060365;28;20045;-63
2021/01/31 12:39:40;;;;;;;15.45;5.57;;;;;;;;;;5043122;28;20049;-59
2021/01/31 12:42:06;;;;;;;14.40;5.25;;;;;;;;;;5027963;28;20056;-63
2021/01/31 12:44:33;;;;;;;13.40;4.25;;;;;;;;;;5045017;28;20044;-63
2021/01/31 12:47:00;;;;;;;13.57;4.28;;;;;;;;;;5042416;28;20037;-62
2021/01/31 12:49:27;;;;;;;10.52;3.90;;;;;;;;;;5023835;28;20098;-60
2021/01/31 12:51:54;;;;;;;10.30;3.78;;;;;;;;;;5021380;28;20083;-61
2021/01/31 12:54:23;;;;;;;17.15;4.72;;;;;;;;;;5024715;28;20062;-61
2021/01/31 12:56:50;;;;;;;12.52;4.05;;;;;;;;;;5021469;28;20041;-62
2021/01/31 12:59:16;;;;;;;9.80;3.42;;;;;;;;;;5023483;28;20033;-62
2021/01/31 13:01:45;;;;;;;11.15;4.82;;;;;;;;;;5028094;28;20033;-62
2021/01/31 13:04:13;;;;;;;14.07;4.50;;;;;;;;;;5037966;28;20125;-62
2021/01/31 13:06:40;;;;;;;11.75;4.13;;;;;;;;;;5036976;28;20076;-62
2021/01/31 13:09:14;;;;;;;13.43;4.38;;;;;;;;;;5041756;28;20046;-62
2021/01/31 13:11:40;;;;;;;9.57;3.63;;;;;;;;;;5042312;28;20049;-62
2021/01/31 13:14:06;;;;;;;15.70;3.78;;;;;;;;;;5036285;28;20045;-63
2021/01/31 13:16:32;;;;;;;11.38;4.40;;;;;;;;;;5032287;28;20107;-62
2021/01/31 13:18:58;;;;;;;8.45;3.30;;;;;;;;;;5039003;28;20061;-62
2021/01/31 13:21:25;;;;;;;8.57;1.75;;;;;;;;;;5038078;28;20056;-61
2021/01/31 13:23:51;;;;;;;8.10;3.10;;;;;;;;;;5034164;28;20053;-60
2021/01/31 13:26:18;;;;;;;9.27;3.00;;;;;;;;;;5040305;28;20139;-62
2021/01/31 13:28:44;;;;;;;9.45;3.53;;;;;;;;;;5037188;28;20045;-62
2021/01/31 13:31:10;;;;;;;9.88;3.72;;;;;;;;;;5037421;28;20041;-61
2021/01/31 13:33:36;;;;;;;5.55;2.70;;;;;;;;;;5036560;28;20053;-62
2021/01/31 13:36:02;;;;;;;4.43;1.80;;;;;;;;;;5040884;28;20085;-59
2021/01/31 13:38:30;;;;;;;10.70;4.35;;;;;;;;;;5034897;28;20041;-62
2021/01/31 13:40:56;;;;;;;3.13;1.20;;;;;;;;;;5042104;28;20048;-61
2021/01/31 13:43:24;;;;;;;12.25;3.72;;;;;;;;;;5030837;28;20045;-61
2021/01/31 13:45:49;;;;;;;12.77;4.13;;;;;;;;;;5037279;28;20056;-60
2021/01/31 13:48:16;;;;;;;9.55;3.47;;;;;;;;;;5038028;28;20056;-60
2021/01/31 13:50:42;;;;;;;9.82;3.42;;;;;;;;;;5038761;28;20059;-62
2021/01/31 13:53:08;;;;;;;9.43;3.83;;;;;;;;;;5040306;28;20110;-62
2021/01/31 13:55:34;;;;;;;11.55;3.65;;;;;;;;;;5038743;28;20047;-60
2021/01/31 13:58:00;;;;;;;12.32;4.05;;;;;;;;;;5039512;28;20140;-61
2021/01/31 14:00:27;;;;;;;10.80;4.18;;;;;;;;;;5033708;28;20049;-60
2021/01/31 14:02:53;;;;;;;7.80;3.15;;;;;;;;;;5041762;28;20029;-63
2021/01/31 14:05:19;;;;;;;7.40;2.83;;;;;;;;;;5034663;28;20049;-60
2021/01/31 14:07:46;;;;;;;8.93;4.03;;;;;;;;;;5042313;28;20046;-62
2021/01/31 14:10:13;;;;;;;7.93;2.50;;;;;;;;;;5048269;28;20045;-61
2021/01/31 14:12:39;;;;;;;11.75;3.45;;;;;;;;;;5043605;28;20033;-61
2021/01/31 14:15:06;;;;;;;14.35;4.47;;;;;;;;;;5038909;28;20095;-60
2021/01/31 14:17:33;;;;;;;5.35;1.83;;;;;;;;;;5043423;28;20033;-59
2021/01/31 14:19:59;;;;;;;10.68;3.50;;;;;;;;;;5027859;28;20054;-61
2021/01/31 14:22:25;;;;;;;10.88;3.97;;;;;;;;;;5041412;28;20032;-60
2021/01/31 14:24:51;;;;;;;13.35;4.05;;;;;;;;;;5035312;28;20074;-60
2021/01/31 14:27:18;;;;;;;10.38;4.28;;;;;;;;;;5034619;28;20041;-60
2021/01/31 14:29:44;;;;;;;11.90;4.45;;;;;;;;;;5042684;28;20067;-61
2021/01/31 14:32:11;;;;;;;11.50;3.88;;;;;;;;;;5045080;28;20037;-64
2021/01/31 14:34:38;;;;;;;8.77;2.97;;;;;;;;;;5040422;28;20040;-61
2021/01/31 14:37:04;;;;;;;10.07;3.45;;;;;;;;;;5041089;28;20114;-60
2021/01/31 14:39:31;;;;;;;6.60;1.92;;;;;;;;;;5035535;28;20029;-61
2021/01/31 14:41:57;;;;;;;5.45;2.53;;;;;;;;;;5023990;28;20086;-63
2021/01/31 14:44:24;;;;;;;17.70;4.68;;;;;;;;;;5044859;28;20037;-60